createdAt,value
2019-02-06T00:01:41.687Z,18.27
2019-02-06T00:06:45.688Z,17.40
2019-02-06T00:11:49.699Z,19.07
2019-02-06T00:16:54.477Z,17.07
2019-02-06T00:21:58.703Z,19.40
2019-02-06T00:27:02.930Z,18.83
2019-02-06T00:32:07.608Z,20.10
2019-02-06T00:37:11.539Z,17.53
2019-02-06T00:42:15.392Z,15.93
2019-02-06T00:47:19.243Z,20.70
2019-02-06T00:52:23.094Z,17.93
2019-02-06T00:57:26.955Z,17.20
2019-02-06T01:02:30.954Z,17.67
2019-02-06T01:07:34.952Z,18.33
2019-02-06T01:12:38.956Z,21.43
2019-02-06T01:17:42.904Z,14.50
2019-02-06T01:22:46.904Z,15.47
2019-02-06T01:27:50.838Z,16.00
2019-02-06T01:32:54.762Z,19.33
2019-02-06T01:37:58.759Z,18.57
2019-02-06T01:43:02.692Z,15.77
2019-02-06T01:48:06.639Z,15.20
2019-02-06T01:53:10.567Z,20.80
2019-02-06T01:58:14.495Z,17.47
2019-02-06T02:03:18.327Z,15.27
2019-02-06T02:08:22.343Z,14.43
2019-02-06T02:13:26.260Z,11.53
2019-02-06T02:18:30.183Z,13.37
2019-02-06T02:23:34.254Z,12.17
2019-02-06T02:28:38.324Z,11.07
2019-02-06T02:33:42.394Z,11.53
2019-02-06T02:38:46.439Z,10.97
2019-02-06T02:43:50.492Z,7.73
2019-02-06T02:48:54.536Z,8.67
2019-02-06T02:53:58.580Z,9.70
2019-02-06T02:59:02.679Z,8.93
2019-02-06T03:04:14.738Z,8.97
2019-02-06T03:09:18.787Z,8.10
2019-02-06T03:14:22.839Z,9.60
2019-02-06T03:19:26.897Z,7.93
2019-02-06T03:24:31.008Z,5.33
2019-02-06T03:29:35.080Z,6.30
2019-02-06T03:34:38.946Z,9.70
2019-02-06T03:39:42.970Z,6.50
2019-02-06T03:44:47.035Z,7.90
2019-02-06T03:49:51.090Z,6.83
2019-02-06T03:54:55.137Z,7.00
2019-02-06T03:59:59.099Z,9.17
2019-02-06T04:05:03.395Z,8.03
2019-02-06T04:10:09.055Z,6.37
2019-02-06T04:15:13.359Z,9.60
2019-02-06T04:20:17.446Z,7.33
2019-02-06T04:25:21.529Z,9.57
2019-02-06T04:30:25.886Z,7.73
2019-02-06T04:35:29.910Z,8.87
2019-02-06T04:40:33.879Z,9.70
2019-02-06T04:45:37.895Z,12.10
2019-02-06T04:50:41.825Z,9.93
2019-02-06T04:55:46.123Z,9.37
2019-02-06T05:00:49.987Z,7.50
2019-02-06T05:05:53.849Z,10.17
2019-02-06T05:10:57.712Z,9.60
2019-02-06T05:16:01.724Z,8.70
2019-02-06T05:21:06.130Z,10.60
2019-02-06T05:26:10.148Z,12.37
2019-02-06T05:31:13.999Z,9.70
2019-02-06T05:36:17.868Z,8.67
2019-02-06T05:41:21.809Z,8.00
2019-02-06T05:46:26.147Z,7.87
2019-02-06T05:51:30.075Z,8.47
2019-02-06T05:56:33.947Z,8.00
2019-02-06T06:01:37.795Z,9.60
2019-02-06T06:06:41.826Z,9.40
2019-02-06T06:11:45.842Z,13.40
2019-02-06T06:16:49.695Z,8.50
2019-02-06T06:21:53.632Z,9.63
2019-02-06T06:26:57.722Z,7.60
2019-02-06T06:32:01.596Z,11.70
2019-02-06T06:37:05.603Z,8.13
2019-02-06T06:42:09.613Z,5.93
2019-02-06T06:47:13.775Z,10.83
2019-02-06T06:52:18.188Z,7.73
2019-02-06T06:57:24.077Z,5.63
2019-02-06T07:02:28.018Z,8.17
2019-02-06T07:07:31.891Z,8.57
2019-02-06T07:12:35.742Z,5.27
2019-02-06T07:17:39.729Z,7.23
2019-02-06T07:22:43.735Z,6.50
2019-02-06T07:27:47.755Z,7.20
2019-02-06T07:32:51.985Z,8.30
2019-02-06T07:37:55.987Z,8.57
2019-02-06T07:43:00.014Z,8.80
2019-02-06T07:48:03.950Z,9.43
2019-02-06T07:53:07.983Z,7.67
2019-02-06T07:58:12.029Z,9.73
2019-02-06T08:03:15.991Z,8.37
2019-02-06T08:08:35.345Z,10.17
2019-02-06T08:13:29.801Z,6.87
2019-02-06T08:18:34.211Z,7.40
2019-02-06T08:23:38.079Z,10.83
2019-02-06T08:28:42.090Z,10.90
2019-02-06T08:33:46.043Z,9.03
2019-02-06T08:38:50.252Z,4.87
2019-02-06T08:43:54.674Z,7.47
2019-02-06T08:48:58.534Z,6.70
2019-02-06T08:54:02.539Z,11.40
2019-02-06T08:59:06.714Z,5.80
2019-02-06T09:04:10.710Z,5.60
2019-02-06T09:09:15.001Z,5.77
2019-02-06T09:14:19.087Z,7.67
2019-02-06T09:19:23.078Z,6.63
2019-02-06T09:24:27.059Z,8.20
2019-02-06T09:29:30.962Z,5.27
2019-02-06T09:34:35.079Z,4.50
2019-02-06T09:39:39.002Z,4.70
2019-02-06T09:44:42.940Z,5.73
2019-02-06T09:49:49.682Z,5.87
2019-02-06T09:54:52.623Z,4.53
2019-02-06T09:59:56.827Z,5.40
2019-02-06T10:05:00.751Z,5.20
2019-02-06T10:10:06.461Z,4.87
2019-02-06T10:15:12.114Z,7.37
2019-02-06T10:20:17.063Z,3.77
2019-02-06T10:25:21.142Z,5.40
2019-02-06T10:30:33.993Z,6.73
2019-02-06T10:35:38.003Z,4.67
2019-02-06T10:40:42.104Z,3.93
2019-02-06T10:45:46.086Z,4.27
2019-02-06T10:50:51.763Z,5.87
2019-02-06T10:55:55.780Z,7.83
2019-02-06T11:01:02.177Z,6.73
2019-02-06T11:06:06.222Z,12.13
2019-02-06T11:11:10.176Z,12.33
2019-02-06T11:16:14.171Z,10.40
2019-02-06T11:21:18.110Z,9.10
2019-02-06T11:26:22.023Z,7.30
2019-02-06T11:31:26.032Z,14.17
2019-02-06T11:36:29.966Z,13.50
2019-02-06T11:41:33.899Z,5.77
2019-02-06T11:46:37.770Z,8.77
2019-02-06T11:51:41.624Z,5.73
2019-02-06T11:56:45.495Z,8.03
2019-02-06T12:01:52.430Z,4.17
2019-02-06T12:06:56.436Z,3.80
2019-02-06T12:12:00.450Z,6.53
2019-02-06T12:17:04.501Z,7.20
2019-02-06T12:22:08.565Z,7.13
2019-02-06T12:27:13.083Z,6.03
2019-02-06T12:32:17.107Z,5.80
2019-02-06T12:37:21.102Z,6.67
2019-02-06T12:42:25.176Z,5.93
2019-02-06T12:47:29.108Z,5.30
2019-02-06T12:52:32.978Z,7.80
2019-02-06T12:57:37.605Z,4.30
2019-02-06T13:02:41.977Z,4.00
2019-02-06T13:07:46.376Z,4.43
2019-02-06T13:12:50.530Z,4.80
2019-02-06T13:17:55.012Z,9.00
2019-02-06T13:22:59.728Z,7.90
2019-02-06T13:28:04.765Z,14.83
2019-02-06T13:33:11.639Z,5.07
2019-02-06T13:38:15.206Z,7.50
2019-02-06T13:43:19.779Z,6.00
2019-02-06T13:48:23.961Z,4.13
2019-02-06T13:53:27.974Z,4.73
2019-02-06T13:58:31.994Z,33.53
2019-02-06T14:03:36.017Z,10.87
2019-02-06T14:08:40.774Z,9.97
2019-02-06T14:13:44.772Z,11.43
2019-02-06T14:18:49.193Z,9.07
2019-02-06T14:24:06.093Z,9.13
2019-02-06T14:29:46.467Z,9.53
2019-02-06T14:35:11.484Z,9.37
2019-02-06T14:40:40.844Z,8.90
2019-02-06T14:46:19.868Z,9.23
2019-02-06T14:52:20.419Z,4.70
2019-02-06T14:58:13.355Z,6.50
2019-02-06T15:04:07.178Z,7.23
2019-02-06T15:09:43.567Z,7.13
2019-02-06T15:15:15.934Z,7.43
2019-02-06T15:20:33.782Z,7.43
2019-02-06T15:26:27.003Z,6.37
2019-02-06T15:32:22.731Z,6.73
2019-02-06T15:37:51.536Z,5.90
2019-02-06T15:43:43.002Z,5.10
2019-02-06T15:49:07.131Z,5.10
2019-02-06T15:54:48.331Z,10.90
2019-02-06T16:00:32.882Z,6.03
2019-02-06T16:06:23.521Z,5.23
2019-02-06T16:12:00.500Z,5.17
2019-02-06T16:17:56.223Z,5.97
2019-02-06T16:23:38.689Z,4.63
2019-02-06T16:29:32.766Z,5.93
2019-02-06T16:34:57.819Z,7.33
2019-02-06T16:40:37.510Z,8.03
2019-02-06T16:46:22.043Z,5.03
2019-02-06T16:51:56.726Z,6.60
2019-02-06T16:57:32.904Z,4.97
2019-02-06T17:03:33.351Z,4.23
2019-02-06T17:09:18.919Z,4.80
2019-02-06T17:15:05.938Z,8.77
2019-02-06T17:20:38.759Z,5.17
2019-02-06T17:26:19.861Z,2.93
2019-02-06T17:32:12.835Z,4.37
2019-02-06T17:37:58.059Z,4.23
2019-02-06T17:43:39.222Z,5.50
2019-02-06T17:49:28.122Z,8.93
2019-02-06T17:55:08.311Z,11.07
2019-02-06T18:00:38.883Z,10.47
2019-02-06T18:05:43.096Z,4.80
2019-02-06T18:10:47.192Z,4.60
2019-02-06T18:15:51.138Z,5.37
2019-02-06T18:20:55.170Z,6.40
2019-02-06T18:25:59.380Z,6.60
2019-02-06T18:31:03.344Z,5.50
2019-02-06T18:36:07.799Z,6.80
2019-02-06T18:41:12.090Z,7.77
2019-02-06T18:46:16.554Z,7.27
2019-02-06T18:51:20.642Z,6.63
2019-02-06T18:56:24.763Z,4.87
2019-02-06T19:01:28.833Z,6.63
2019-02-06T19:06:32.781Z,4.40
2019-02-06T19:11:36.860Z,5.20
2019-02-06T19:16:40.805Z,11.13
2019-02-06T19:21:44.881Z,4.53
2019-02-06T19:26:48.887Z,5.73
2019-02-06T19:31:52.847Z,5.07
2019-02-06T19:37:01.170Z,6.67
2019-02-06T19:42:07.250Z,6.10
2019-02-06T19:47:15.569Z,6.53
2019-02-06T19:52:19.341Z,7.17
2019-02-06T19:57:25.954Z,5.63
2019-02-06T20:02:29.050Z,5.17
2019-02-06T20:07:33.069Z,8.53
2019-02-06T20:12:39.079Z,6.73
2019-02-06T20:17:44.619Z,11.18
2019-02-06T20:22:51.315Z,7.13
2019-02-06T20:27:55.806Z,8.97
2019-02-06T20:32:59.867Z,8.30
2019-02-06T20:38:03.823Z,7.23
2019-02-06T20:43:07.839Z,6.97
2019-02-06T20:48:11.743Z,9.63
2019-02-06T20:53:16.085Z,8.47
2019-02-06T20:58:20.124Z,12.00
2019-02-06T21:03:24.264Z,7.20
2019-02-06T21:08:28.259Z,7.00
2019-02-06T21:13:33.454Z,9.40
2019-02-06T21:18:37.891Z,13.97
2019-02-06T21:23:41.828Z,7.70
2019-02-06T21:28:45.856Z,7.90
2019-02-06T21:33:49.996Z,11.97
2019-02-06T21:38:54.018Z,7.40
2019-02-06T21:43:58.315Z,5.93
2019-02-06T21:49:02.347Z,7.07
2019-02-06T21:54:06.683Z,9.23
2019-02-06T21:59:11.732Z,7.63
2019-02-06T22:04:15.866Z,9.80
2019-02-06T22:09:20.074Z,6.97
2019-02-06T22:14:24.106Z,7.30
2019-02-06T22:19:28.151Z,10.50
2019-02-06T22:24:32.075Z,9.33
2019-02-06T22:29:36.063Z,9.83
2019-02-06T22:34:40.218Z,7.33
2019-02-06T22:39:44.189Z,9.40
2019-02-06T22:44:48.223Z,8.40
2019-02-06T22:49:52.086Z,6.17
2019-02-06T22:54:56.119Z,6.77
2019-02-06T23:00:00.041Z,6.77
2019-02-06T23:05:04.799Z,9.30
2019-02-06T23:10:09.293Z,6.80
2019-02-06T23:15:13.828Z,10.03
2019-02-06T23:20:18.126Z,7.17
2019-02-06T23:25:22.187Z,7.03
2019-02-06T23:30:26.214Z,8.23
2019-02-06T23:35:30.296Z,6.50
2019-02-06T23:40:34.319Z,7.80
2019-02-06T23:45:38.707Z,8.67
2019-02-06T23:50:42.844Z,8.33
2019-02-06T23:55:47.091Z,8.40
